Time;durP1;ratioP1;P1;durP2;ratioP2;P2;SDS_P1;SDS_P2;PMS_P1;PMS_P2;Temp;Humidity;BMP_temperature;BMP_pressure;BME280_temperature;BME280_humidity;BME280_pressure;Samples;Min_cycle;Max_cycle;Signal;HPM_P1;HPM_P2
2022/04/02 00:01:40;;;;;;;6.80;2.08;;;;;;;;;;5074423;28;20621;-74
2022/04/02 00:04:06;;;;;;;5.40;2.40;;;;;;;;;;5074145;28;20029;-74
2022/04/02 00:06:33;;;;;;;5.43;1.90;;;;;;;;;;5088055;28;20024;-74
2022/04/02 00:08:59;;;;;;;4.72;2.00;;;;;;;;;;5075399;28;20040;-73
2022/04/02 00:11:25;;;;;;;3.65;2.10;;;;;;;;;;5086149;28;20024;-74
2022/04/02 00:13:51;;;;;;;6.80;2.22;;;;;;;;;;5080113;28;20447;-74
2022/04/02 00:16:16;;;;;;;4.85;2.10;;;;;;;;;;5090439;28;20077;-73
2022/04/02 00:18:43;;;;;;;10.10;2.22;;;;;;;;;;5084619;28;20028;-73
2022/04/02 00:21:09;;;;;;;3.58;2.08;;;;;;;;;;5075492;28;20043;-73
2022/04/02 00:23:43;;;;;;;7.03;2.20;;;;;;;;;;5088792;28;20061;-74
2022/04/02 00:26:10;;;;;;;6.95;2.03;;;;;;;;;;5079063;28;20085;-74
2022/04/02 00:28:36;;;;;;;3.33;1.90;;;;;;;;;;5088441;28;20119;-74
2022/04/02 00:31:03;;;;;;;3.17;2.13;;;;;;;;;;5075956;28;20040;-74
2022/04/02 00:33:29;;;;;;;4.82;2.20;;;;;;;;;;5086818;28;20020;-74
2022/04/02 00:35:55;;;;;;;4.25;2.22;;;;;;;;;;5084140;28;20719;-74
2022/04/02 00:38:21;;;;;;;3.58;2.00;;;;;;;;;;5081360;28;20040;-74
2022/04/02 00:40:47;;;;;;;6.15;2.08;;;;;;;;;;5082374;28;20039;-74
2022/04/02 00:43:25;;;;;;;8.45;2.60;;;;;;;;;;5083531;28;20051;-74
2022/04/02 00:45:51;;;;;;;5.97;2.20;;;;;;;;;;5087999;28;20139;-73
2022/04/02 00:48:18;;;;;;;5.40;2.50;;;;;;;;;;5084349;28;20501;-74
2022/04/02 00:50:45;;;;;;;5.95;2.30;;;;;;;;;;5078580;28;20045;-73
2022/04/02 00:53:11;;;;;;;4.75;2.20;;;;;;;;;;5085569;28;20117;-74
2022/04/02 00:55:37;;;;;;;3.83;2.00;;;;;;;;;;5077909;28;20020;-74
2022/04/02 00:58:05;;;;;;;3.00;2.17;;;;;;;;;;5072690;28;20717;-74
2022/04/02 01:00:31;;;;;;;6.18;2.10;;;;;;;;;;5079783;28;20505;-74
2022/04/02 01:02:57;;;;;;;5.35;2.38;;;;;;;;;;5080822;28;20028;-73
2022/04/02 01:05:23;;;;;;;4.15;2.38;;;;;;;;;;5080707;28;20029;-73
2022/04/02 01:07:49;;;;;;;7.22;2.50;;;;;;;;;;5087972;28;20064;-74
2022/04/02 01:10:15;;;;;;;7.47;2.00;;;;;;;;;;5087416;28;20035;-73
2022/04/02 01:12:44;;;;;;;7.13;2.47;;;;;;;;;;5084447;28;20048;-74
2022/04/02 01:15:09;;;;;;;7.93;2.30;;;;;;;;;;5083603;28;20024;-73
2022/04/02 01:17:36;;;;;;;5.82;2.38;;;;;;;;;;5088844;28;20034;-73
2022/04/02 01:20:03;;;;;;;4.75;2.10;;;;;;;;;;5079432;28;20063;-73
2022/04/02 01:22:29;;;;;;;7.68;2.42;;;;;;;;;;5082984;28;20368;-73
2022/04/02 01:24:55;;;;;;;9.98;2.28;;;;;;;;;;5081377;28;20216;-73
2022/04/02 01:27:22;;;;;;;4.30;2.10;;;;;;;;;;5083724;28;20016;-73
2022/04/02 01:29:48;;;;;;;2.95;2.10;;;;;;;;;;5077484;28;20028;-74
2022/04/02 01:32:14;;;;;;;3.65;2.40;;;;;;;;;;5079121;28;20539;-74
2022/04/02 01:34:40;;;;;;;6.88;2.38;;;;;;;;;;5083973;28;20024;-73
2022/04/02 01:37:06;;;;;;;4.43;2.40;;;;;;;;;;5086782;28;20028;-74
2022/04/02 01:39:32;;;;;;;3.90;1.95;;;;;;;;;;5088607;28;20062;-74
2022/04/02 01:41:57;;;;;;;6.22;2.13;;;;;;;;;;5074535;28;20466;-74
2022/04/02 01:44:24;;;;;;;5.72;2.30;;;;;;;;;;5079296;28;20037;-74
2022/04/02 01:46:50;;;;;;;3.05;2.10;;;;;;;;;;5073815;28;20562;-75
2022/04/02 01:49:16;;;;;;;6.72;2.40;;;;;;;;;;5073211;28;20052;-74
2022/04/02 01:51:42;;;;;;;6.53;2.17;;;;;;;;;;5075119;28;20077;-74
2022/04/02 01:54:07;;;;;;;6.63;2.45;;;;;;;;;;5078402;28;20043;-74
2022/04/02 01:56:34;;;;;;;4.95;2.28;;;;;;;;;;5078649;28;20021;-73
2022/04/02 01:59:00;;;;;;;5.80;2.53;;;;;;;;;;5076613;28;20390;-73
2022/04/02 02:01:26;;;;;;;5.40;2.28;;;;;;;;;;5075915;28;20106;-74
2022/04/02 02:03:53;;;;;;;4.85;2.47;;;;;;;;;;5070516;28;20024;-75
2022/04/02 02:06:19;;;;;;;7.65;2.42;;;;;;;;;;5083910;28;20035;-74
2022/04/02 02:08:44;;;;;;;4.40;2.28;;;;;;;;;;5074099;28;20107;-74
2022/04/02 02:11:10;;;;;;;3.50;2.00;;;;;;;;;;5076523;28;20174;-74
2022/04/02 02:13:36;;;;;;;5.50;2.05;;;;;;;;;;5074304;28;20051;-74
2022/04/02 02:16:02;;;;;;;7.50;1.90;;;;;;;;;;5081219;28;20027;-74
2022/04/02 02:18:28;;;;;;;5.65;2.30;;;;;;;;;;5080502;28;20040;-74
2022/04/02 02:20:54;;;;;;;7.13;2.25;;;;;;;;;;5077774;28;20031;-74
2022/04/02 02:23:20;;;;;;;7.20;2.42;;;;;;;;;;5083518;28;20035;-74
2022/04/02 02:25:46;;;;;;;4.60;2.13;;;;;;;;;;5073858;28;20041;-74
2022/04/02 02:28:12;;;;;;;5.38;2.40;;;;;;;;;;5078324;28;20115;-74
2022/04/02 02:30:38;;;;;;;3.95;2.05;;;;;;;;;;5084928;28;20032;-74
2022/04/02 02:35:51;;;;;;;10.52;1.95;;;;;;;;;;5076787;28;20510;-75
2022/04/02 02:38:20;;;;;;;4.20;2.20;;;;;;;;;;5083462;28;20032;-75
2022/04/02 02:40:46;;;;;;;2.92;2.08;;;;;;;;;;5072024;28;20020;-74
2022/04/02 02:43:13;;;;;;;3.55;2.05;;;;;;;;;;5078429;28;20020;-74
2022/04/02 02:45:39;;;;;;;4.78;1.88;;;;;;;;;;5077432;28;20486;-74
2022/04/02 02:48:05;;;;;;;10.38;2.25;;;;;;;;;;5080515;28;20031;-74
2022/04/02 02:50:31;;;;;;;2.95;1.80;;;;;;;;;;5086938;28;20056;-74
2022/04/02 02:52:57;;;;;;;7.82;2.08;;;;;;;;;;5087827;28;20078;-74
2022/04/02 02:55:22;;;;;;;3.03;1.80;;;;;;;;;;5083645;28;20064;-74
2022/04/02 02:57:48;;;;;;;9.55;2.22;;;;;;;;;;5077309;28;20020;-74
2022/04/02 03:00:15;;;;;;;4.78;2.13;;;;;;;;;;5075104;28;20127;-74
2022/04/02 03:02:41;;;;;;;3.40;1.90;;;;;;;;;;5078029;28;20028;-74
2022/04/02 03:05:10;;;;;;;5.45;1.92;;;;;;;;;;5072803;28;20123;-74
2022/04/02 03:07:48;;;;;;;3.90;1.85;;;;;;;;;;5080938;28;20036;-74
2022/04/02 03:10:13;;;;;;;3.85;1.88;;;;;;;;;;5086625;28;20367;-74
2022/04/02 03:12:39;;;;;;;4.88;1.98;;;;;;;;;;5082705;28;20047;-74
2022/04/02 03:15:05;;;;;;;8.98;2.10;;;;;;;;;;5077000;28;20052;-74
2022/04/02 03:17:31;;;;;;;6.10;2.17;;;;;;;;;;5085384;28;20028;-74
2022/04/02 03:19:57;;;;;;;3.58;1.80;;;;;;;;;;5079739;28;20046;-75
2022/04/02 03:22:24;;;;;;;8.65;2.10;;;;;;;;;;5079220;28;20024;-74
2022/04/02 03:24:51;;;;;;;5.53;2.15;;;;;;;;;;5082320;28;20028;-74
2022/04/02 03:27:16;;;;;;;5.57;1.60;;;;;;;;;;5080371;28;20028;-74
2022/04/02 03:29:42;;;;;;;5.03;2.05;;;;;;;;;;5076823;28;20378;-74
2022/04/02 03:32:08;;;;;;;6.28;2.00;;;;;;;;;;5074373;28;20024;-73
2022/04/02 03:34:34;;;;;;;4.90;2.13;;;;;;;;;;5075304;28;20485;-75
2022/04/02 03:37:00;;;;;;;8.05;2.08;;;;;;;;;;5076438;28;20056;-73
2022/04/02 03:39:26;;;;;;;3.42;1.55;;;;;;;;;;5084820;28;20031;-74
2022/04/02 03:41:55;;;;;;;3.90;1.75;;;;;;;;;;5073038;28;20170;-75
2022/04/02 03:44:20;;;;;;;5.30;1.98;;;;;;;;;;5080440;28;20027;-75
2022/04/02 03:49:31;;;;;;;4.85;1.77;;;;;;;;;;5074291;28;20093;-74
2022/04/02 03:51:57;;;;;;;5.32;1.65;;;;;;;;;;5080207;28;20027;-75
2022/04/02 03:54:23;;;;;;;3.58;1.92;;;;;;;;;;5083500;28;20021;-75
2022/04/02 03:56:49;;;;;;;5.82;1.70;;;;;;;;;;5077788;28;20016;-75
2022/04/02 03:59:14;;;;;;;3.00;1.60;;;;;;;;;;5075520;28;20032;-75
2022/04/02 04:01:40;;;;;;;4.65;1.98;;;;;;;;;;5085386;28;20406;-75
2022/04/02 04:04:06;;;;;;;2.92;1.92;;;;;;;;;;5083765;28;20028;-75
2022/04/02 04:06:32;;;;;;;4.28;1.83;;;;;;;;;;5081362;28;20119;-75
2022/04/02 04:08:58;;;;;;;4.68;2.00;;;;;;;;;;5070031;28;20657;-75
2022/04/02 04:11:26;;;;;;;12.88;4.90;;;;;;;;;;5079264;28;20414;-75
2022/04/02 04:13:52;;;;;;;17.05;7.38;;;;;;;;;;5083907;28;20036;-75
2022/04/02 04:16:17;;;;;;;8.25;3.67;;;;;;;;;;5078865;28;20042;-75
2022/04/02 04:18:43;;;;;;;5.45;2.47;;;;;;;;;;5076989;28;20039;-74
2022/04/02 04:21:11;;;;;;;6.47;2.80;;;;;;;;;;5079637;28;20040;-74
2022/04/02 04:23:36;;;;;;;5.32;2.22;;;;;;;;;;5083345;28;20032;-74
2022/04/02 04:26:02;;;;;;;6.32;2.17;;;;;;;;;;5081218;28;20050;-74
2022/04/02 04:28:28;;;;;;;6.00;2.20;;;;;;;;;;5077340;28;20031;-74
2022/04/02 04:30:55;;;;;;;7.13;2.60;;;;;;;;;;5073236;28;20033;-74
2022/04/02 04:33:20;;;;;;;10.00;4.20;;;;;;;;;;5078265;28;20032;-74
2022/04/02 04:35:46;;;;;;;6.60;4.32;;;;;;;;;;5079107;28;20471;-74
2022/04/02 04:38:15;;;;;;;9.75;5.55;;;;;;;;;;5079914;28;20039;-75
2022/04/02 04:40:47;;;;;;;7.25;4.40;;;;;;;;;;5088245;28;20438;-75
2022/04/02 04:43:13;;;;;;;4.22;2.38;;;;;;;;;;5076695;28;20033;-75
2022/04/02 04:45:40;;;;;;;6.82;2.05;;;;;;;;;;5087030;28;20032;-74
2022/04/02 04:48:09;;;;;;;7.22;2.28;;;;;;;;;;5077181;28;20032;-75
2022/04/02 04:50:35;;;;;;;3.40;1.92;;;;;;;;;;5072937;28;20108;-75
2022/04/02 04:53:02;;;;;;;4.25;2.08;;;;;;;;;;5082555;28;20535;-74
2022/04/02 04:55:28;;;;;;;6.00;2.10;;;;;;;;;;5087225;28;20028;-74
2022/04/02 04:57:54;;;;;;;4.55;2.15;;;;;;;;;;5089911;28;20027;-74
2022/04/02 05:00:20;;;;;;;9.40;4.65;;;;;;;;;;5074566;28;20036;-75
2022/04/02 05:02:47;;;;;;;5.63;2.72;;;;;;;;;;5085554;28;20031;-74
2022/04/02 05:05:13;;;;;;;5.88;3.45;;;;;;;;;;5085027;28;20036;-74
2022/04/02 05:07:39;;;;;;;7.22;3.13;;;;;;;;;;5089249;28;20077;-74
2022/04/02 05:10:07;;;;;;;13.80;4.70;;;;;;;;;;5083379;28;20024;-74
2022/04/02 05:12:33;;;;;;;11.48;6.38;;;;;;;;;;5078383;28;20056;-74
2022/04/02 05:14:59;;;;;;;10.55;3.92;;;;;;;;;;5084935;28;20024;-74
2022/04/02 05:17:25;;;;;;;5.85;3.10;;;;;;;;;;5087609;28;20024;-74
2022/04/02 05:19:51;;;;;;;11.98;4.07;;;;;;;;;;5087032;28;20119;-74
2022/04/02 05:22:17;;;;;;;8.23;3.55;;;;;;;;;;5082991;28;20028;-74
2022/04/02 05:24:42;;;;;;;7.28;3.70;;;;;;;;;;5085617;28;20425;-74
2022/04/02 05:27:09;;;;;;;11.10;2.75;;;;;;;;;;5085023;28;20105;-74
2022/04/02 05:29:35;;;;;;;9.95;5.20;;;;;;;;;;5086734;28;20039;-75
2022/04/02 05:32:02;;;;;;;7.00;3.88;;;;;;;;;;5082052;28;20502;-74
2022/04/02 05:34:28;;;;;;;10.77;5.90;;;;;;;;;;5084329;28;20047;-73
2022/04/02 05:36:54;;;;;;;3.40;2.00;;;;;;;;;;5089058;28;20238;-73
2022/04/02 05:39:21;;;;;;;12.40;2.95;;;;;;;;;;5081632;28;20088;-74
2022/04/02 05:41:48;;;;;;;11.48;3.47;;;;;;;;;;5077885;28;20035;-75
2022/04/02 05:44:14;;;;;;;4.65;2.33;;;;;;;;;;5073239;28;20391;-75
2022/04/02 05:46:40;;;;;;;6.95;2.40;;;;;;;;;;5084673;28;20032;-74
2022/04/02 05:49:06;;;;;;;7.43;3.00;;;;;;;;;;5078778;28;20123;-74
2022/04/02 05:51:32;;;;;;;8.57;2.67;;;;;;;;;;5072338;28;20047;-74
2022/04/02 05:53:59;;;;;;;5.03;2.53;;;;;;;;;;5077062;28;20021;-74
2022/04/02 05:56:25;;;;;;;7.05;2.15;;;;;;;;;;5083988;28;20043;-74
2022/04/02 05:58:51;;;;;;;7.50;2.65;;;;;;;;;;5084558;28;20036;-73
2022/04/02 06:01:17;;;;;;;5.10;2.13;;;;;;;;;;5079359;28;20036;-74
2022/04/02 06:03:43;;;;;;;4.95;2.70;;;;;;;;;;5081535;28;20028;-74
2022/04/02 06:06:09;;;;;;;4.78;2.60;;;;;;;;;;5087057;28;20028;-74
2022/04/02 06:08:35;;;;;;;7.22;2.95;;;;;;;;;;5081700;28;20032;-73
2022/04/02 06:11:01;;;;;;;5.85;2.70;;;;;;;;;;5085153;28;20638;-74
2022/04/02 06:13:28;;;;;;;5.20;2.50;;;;;;;;;;5080736;28;20040;-74
2022/04/02 06:15:54;;;;;;;8.18;3.15;;;;;;;;;;5077618;28;20090;-74
2022/04/02 06:18:20;;;;;;;5.40;2.40;;;;;;;;;;5083999;28;20036;-74
2022/04/02 06:20:47;;;;;;;7.40;2.38;;;;;;;;;;5074522;28;20020;-76
2022/04/02 06:23:13;;;;;;;6.20;2.35;;;;;;;;;;5080497;28;20429;-76
2022/04/02 06:25:39;;;;;;;4.78;2.20;;;;;;;;;;5084193;28;20027;-75
2022/04/02 06:28:05;;;;;;;4.82;1.92;;;;;;;;;;5076520;28;20475;-76
2022/04/02 06:30:31;;;;;;;2.75;1.98;;;;;;;;;;5083814;28;20024;-76
2022/04/02 06:32:58;;;;;;;5.93;1.83;;;;;;;;;;5076093;28;20498;-74
2022/04/02 06:35:24;;;;;;;7.05;2.00;;;;;;;;;;5076198;28;20103;-78
2022/04/02 06:37:50;;;;;;;6.55;2.20;;;;;;;;;;5081548;28;20680;-79
2022/04/02 06:40:16;;;;;;;8.70;2.53;;;;;;;;;;5074610;28;20040;-80
2022/04/02 06:42:42;;;;;;;5.20;1.88;;;;;;;;;;5080237;28;20028;-76
2022/04/02 06:45:08;;;;;;;6.60;2.35;;;;;;;;;;5079483;28;20039;-75
2022/04/02 06:47:34;;;;;;;6.78;1.90;;;;;;;;;;5077395;28;20118;-76
2022/04/02 06:50:09;;;;;;;3.67;1.73;;;;;;;;;;5081546;28;20118;-74
2022/04/02 06:52:35;;;;;;;3.30;2.17;;;;;;;;;;5079139;28;20112;-73
2022/04/02 06:55:01;;;;;;;4.53;2.20;;;;;;;;;;5071437;28;20024;-74
2022/04/02 06:57:28;;;;;;;3.42;2.22;;;;;;;;;;5074533;28;20028;-76
2022/04/02 06:59:54;;;;;;;3.72;1.90;;;;;;;;;;5083026;28;20025;-74
2022/04/02 07:02:22;;;;;;;5.03;1.80;;;;;;;;;;5084183;28;20028;-75
2022/04/02 07:04:48;;;;;;;4.75;1.90;;;;;;;;;;5084683;28;20058;-75
2022/04/02 07:07:14;;;;;;;5.03;2.08;;;;;;;;;;5080340;28;20020;-79
2022/04/02 07:09:40;;;;;;;3.47;1.80;;;;;;;;;;5080521;28;20032;-79
2022/04/02 07:12:07;;;;;;;4.53;2.08;;;;;;;;;;5081763;28;20405;-76
2022/04/02 07:14:33;;;;;;;3.70;2.05;;;;;;;;;;5072870;28;20033;-75
2022/04/02 07:16:59;;;;;;;5.72;1.77;;;;;;;;;;5089082;28;20024;-76
2022/04/02 07:19:25;;;;;;;4.00;1.90;;;;;;;;;;5082068;28;20036;-75
2022/04/02 07:21:52;;;;;;;3.30;1.70;;;;;;;;;;5072263;28;20028;-75
2022/04/02 07:24:18;;;;;;;7.57;2.33;;;;;;;;;;5091448;28;20487;-75
2022/04/02 07:26:45;;;;;;;5.63;2.17;;;;;;;;;;5085726;28;20027;-76
2022/04/02 07:29:11;;;;;;;4.97;2.10;;;;;;;;;;5070972;28;20109;-76
2022/04/02 07:31:37;;;;;;;2.65;1.83;;;;;;;;;;5074089;28;20020;-81
2022/04/02 07:34:03;;;;;;;8.32;2.38;;;;;;;;;;5073108;28;20440;-76
2022/04/02 07:36:39;;;;;;;4.63;1.88;;;;;;;;;;5078542;28;20024;-77
2022/04/02 07:39:12;;;;;;;6.40;1.90;;;;;;;;;;5083978;28;20394;-76
2022/04/02 07:41:37;;;;;;;8.25;2.40;;;;;;;;;;5084675;28;20028;-73
2022/04/02 07:44:31;;;;;;;3.42;1.85;;;;;;;;;;5077983;28;20028;-78
2022/04/02 07:46:57;;;;;;;8.43;2.03;;;;;;;;;;5082328;28;20371;-80
2022/04/02 07:49:24;;;;;;;3.05;1.65;;;;;;;;;;5073895;28;20035;-80
2022/04/02 07:51:52;;;;;;;3.97;2.10;;;;;;;;;;5077786;28;20078;-80
2022/04/02 07:54:21;;;;;;;3.08;1.50;;;;;;;;;;5076273;28;20028;-78
2022/04/02 07:56:49;;;;;;;2.75;1.48;;;;;;;;;;5079073;28;20448;-77
2022/04/02 07:59:25;;;;;;;6.40;1.83;;;;;;;;;;5081555;28;20028;-79
2022/04/02 08:01:51;;;;;;;4.82;1.83;;;;;;;;;;5089312;28;20592;-80
2022/04/02 08:04:18;;;;;;;2.95;1.73;;;;;;;;;;5080325;28;20157;-80
2022/04/02 08:06:44;;;;;;;3.53;1.80;;;;;;;;;;5088868;28;20028;-80
2022/04/02 08:09:12;;;;;;;3.53;1.30;;;;;;;;;;5091760;28;20146;-81
2022/04/02 08:11:38;;;;;;;1.48;1.30;;;;;;;;;;5089253;28;20024;-79
2022/04/02 08:14:04;;;;;;;2.63;1.60;;;;;;;;;;5090118;28;20449;-79
2022/04/02 08:16:32;;;;;;;5.13;1.58;;;;;;;;;;5091851;28;20024;-79
2022/04/02 08:18:59;;;;;;;3.03;1.63;;;;;;;;;;5095721;28;20024;-79
2022/04/02 08:21:25;;;;;;;5.38;1.65;;;;;;;;;;5080576;28;20056;-79
2022/04/02 08:23:51;;;;;;;5.63;1.70;;;;;;;;;;5077487;28;20528;-79
2022/04/02 08:26:35;;;;;;;3.40;1.55;;;;;;;;;;5077039;28;20025;-76
2022/04/02 08:29:10;;;;;;;2.15;1.60;;;;;;;;;;5085517;28;20051;-76
2022/04/02 08:32:02;;;;;;;3.15;1.40;;;;;;;;;;5085425;28;20032;-76
2022/04/02 08:34:38;;;;;;;4.60;1.38;;;;;;;;;;5077123;28;20068;-76
2022/04/02 08:37:12;;;;;;;4.30;1.58;;;;;;;;;;5075290;28;20031;-76
2022/04/02 08:39:58;;;;;;;4.80;1.80;;;;;;;;;;5081863;28;20028;-76
2022/04/02 08:42:56;;;;;;;5.22;1.60;;;;;;;;;;5082428;28;20020;-76
2022/04/02 08:45:28;;;;;;;3.03;1.42;;;;;;;;;;5081529;28;20033;-74
2022/04/02 08:48:03;;;;;;;3.78;2.47;;;;;;;;;;5081625;28;20020;-74
2022/04/02 08:50:30;;;;;;;6.53;1.75;;;;;;;;;;5085010;28;20429;-73
2022/04/02 08:52:57;;;;;;;4.57;2.13;;;;;;;;;;5087966;28;20013;-74
2022/04/02 08:55:41;;;;;;;3.45;1.70;;;;;;;;;;5078722;28;20534;-74
2022/04/02 08:58:07;;;;;;;8.35;1.80;;;;;;;;;;5084394;28;20032;-73
2022/04/02 09:00:36;;;;;;;2.83;1.67;;;;;;;;;;5091866;28;20386;-74
2022/04/02 09:03:15;;;;;;;4.53;1.70;;;;;;;;;;5085705;28;20032;-74
2022/04/02 09:06:00;;;;;;;5.85;1.65;;;;;;;;;;5080110;28;20109;-73
2022/04/02 09:08:35;;;;;;;2.28;1.50;;;;;;;;;;5070418;28;20043;-73
2022/04/02 09:11:20;;;;;;;2.72;1.60;;;;;;;;;;5077144;28;20056;-73
2022/04/02 09:13:49;;;;;;;3.80;1.52;;;;;;;;;;5083049;28;20043;-73
2022/04/02 09:16:21;;;;;;;6.65;1.70;;;;;;;;;;5081091;28;20471;-73
2022/04/02 09:18:50;;;;;;;6.82;1.90;;;;;;;;;;5076883;28;20375;-73
2022/04/02 09:21:31;;;;;;;4.13;1.80;;;;;;;;;;5088341;28;20039;-72
2022/04/02 09:24:14;;;;;;;8.52;1.75;;;;;;;;;;5073225;28;20067;-73
2022/04/02 09:26:43;;;;;;;2.88;1.70;;;;;;;;;;5079267;28;20410;-73
2022/04/02 09:29:16;;;;;;;4.65;1.77;;;;;;;;;;5089703;28;20450;-73
2022/04/02 09:31:45;;;;;;;3.33;1.90;;;;;;;;;;5078693;28;20032;-72
2022/04/02 09:34:29;;;;;;;2.55;1.65;;;;;;;;;;5084276;28;20029;-73
2022/04/02 09:37:03;;;;;;;2.40;1.73;;;;;;;;;;5074045;28;20032;-73
2022/04/02 09:39:38;;;;;;;3.13;1.63;;;;;;;;;;5088053;28;20035;-73
2022/04/02 09:42:27;;;;;;;3.80;1.92;;;;;;;;;;5076015;28;20044;-73
2022/04/02 09:45:00;;;;;;;4.25;1.83;;;;;;;;;;5085651;28;20024;-74
2022/04/02 09:47:44;;;;;;;4.60;1.83;;;;;;;;;;5086888;28;20036;-73
2022/04/02 09:50:11;;;;;;;3.47;1.85;;;;;;;;;;5079202;28;20140;-73
2022/04/02 09:52:44;;;;;;;6.70;1.70;;;;;;;;;;5075733;28;20028;-73
2022/04/02 09:55:14;;;;;;;2.60;1.60;;;;;;;;;;5074311;28;20059;-73
2022/04/02 09:57:51;;;;;;;1.97;1.57;;;;;;;;;;5072062;28;20035;-73
2022/04/02 10:00:17;;;;;;;9.50;1.80;;;;;;;;;;5076424;28;20398;-73
2022/04/02 10:02:54;;;;;;;5.85;2.00;;;;;;;;;;5087389;28;20103;-72
2022/04/02 10:05:24;;;;;;;3.35;1.80;;;;;;;;;;5079380;28;20060;-73
2022/04/02 10:07:56;;;;;;;6.38;1.80;;;;;;;;;;5074799;28;20022;-73
2022/04/02 10:10:26;;;;;;;3.03;1.80;;;;;;;;;;5077180;28;20491;-73
2022/04/02 10:12:54;;;;;;;2.10;1.60;;;;;;;;;;5083765;28;20036;-73
2022/04/02 10:15:20;;;;;;;4.30;1.75;;;;;;;;;;5082323;28;20051;-74
2022/04/02 10:17:51;;;;;;;7.72;1.75;;;;;;;;;;5081351;28;20032;-74
2022/04/02 10:20:18;;;;;;;3.83;1.87;;;;;;;;;;5076041;28;20108;-73
2022/04/02 10:22:45;;;;;;;7.93;1.70;;;;;;;;;;5087032;28;20607;-74
2022/04/02 10:25:12;;;;;;;4.32;1.88;;;;;;;;;;5070367;28;20494;-73
2022/04/02 10:27:39;;;;;;;3.80;1.92;;;;;;;;;;5075964;28;20035;-73
2022/04/02 10:30:09;;;;;;;3.10;1.90;;;;;;;;;;5079802;28;20071;-73
2022/04/02 10:32:50;;;;;;;7.47;2.17;;;;;;;;;;5077339;28;20095;-73
2022/04/02 10:35:16;;;;;;;2.13;1.88;;;;;;;;;;5076252;28;20044;-73
2022/04/02 10:38:04;;;;;;;6.97;2.13;;;;;;;;;;5075133;28;20052;-73
2022/04/02 10:40:30;;;;;;;5.55;2.17;;;;;;;;;;5078477;28;20028;-72
2022/04/02 10:43:06;;;;;;;3.05;1.83;;;;;;;;;;5077563;28;20028;-73
2022/04/02 10:45:35;;;;;;;3.97;1.85;;;;;;;;;;5074768;28;20103;-73
2022/04/02 10:48:10;;;;;;;6.50;1.92;;;;;;;;;;5077966;28;20032;-74
2022/04/02 10:50:40;;;;;;;3.25;2.00;;;;;;;;;;5088093;28;20043;-77
2022/04/02 10:53:09;;;;;;;2.85;1.80;;;;;;;;;;5075103;28;20044;-76
2022/04/02 10:55:39;;;;;;;6.15;1.95;;;;;;;;;;5079262;28;20044;-76
2022/04/02 10:58:10;;;;;;;2.83;1.60;;;;;;;;;;5082180;28;20541;-76
2022/04/02 11:00:36;;;;;;;;;;;;;;;;;;5085831;28;20059;-76
2022/04/02 11:03:08;;;;;;;4.50;1.80;;;;;;;;;;5077456;28;20238;-77
2022/04/02 11:05:33;;;;;;;;;;;;;;;;;;5070181;28;20494;-76
2022/04/02 11:08:05;;;;;;;3.42;1.60;;;;;;;;;;5071896;28;19908;-76
2022/04/02 11:10:31;;;;;;;2.70;1.77;;;;;;;;;;5069658;28;20032;-77
2022/04/02 11:13:00;;;;;;;5.72;1.73;;;;;;;;;;5084504;28;20074;-77
2022/04/02 11:15:31;;;;;;;5.25;1.85;;;;;;;;;;5083180;28;20020;-77
2022/04/02 11:17:59;;;;;;;9.70;1.80;;;;;;;;;;5080823;28;20047;-77
2022/04/02 11:20:30;;;;;;;4.38;1.98;;;;;;;;;;5078657;28;20024;-77
2022/04/02 11:22:57;;;;;;;2.00;1.50;;;;;;;;;;5081147;28;20039;-77
2022/04/02 11:25:45;;;;;;;3.70;2.00;;;;;;;;;;5073126;28;20761;-77
2022/04/02 11:28:21;;;;;;;4.80;1.70;;;;;;;;;;5069352;28;20036;-77
2022/04/02 11:30:49;;;;;;;4.63;1.80;;;;;;;;;;5075984;28;20032;-77
2022/04/02 11:33:16;;;;;;;3.78;1.90;;;;;;;;;;5076948;28;20016;-77
2022/04/02 11:35:51;;;;;;;4.20;1.73;;;;;;;;;;5081584;28;20051;-77
2022/04/02 11:38:26;;;;;;;2.42;1.52;;;;;;;;;;5069066;28;20025;-77
2022/04/02 11:40:56;;;;;;;4.25;1.60;;;;;;;;;;5081583;28;20024;-76
2022/04/02 11:43:32;;;;;;;3.90;1.65;;;;;;;;;;5081845;28;20020;-76
2022/04/02 11:45:59;;;;;;;3.17;1.77;;;;;;;;;;5075418;28;20029;-76
2022/04/02 11:48:27;;;;;;;3.95;1.58;;;;;;;;;;5089451;28;20024;-76
2022/04/02 11:50:53;;;;;;;2.25;1.58;;;;;;;;;;5091245;28;20028;-77
2022/04/02 11:53:29;;;;;;;14.15;1.88;;;;;;;;;;5081729;28;20020;-76
2022/04/02 11:55:55;;;;;;;4.75;1.60;;;;;;;;;;5092457;28;20052;-76
2022/04/02 11:58:22;;;;;;;2.97;1.65;;;;;;;;;;5086102;28;20079;-75
2022/04/02 12:00:56;;;;;;;3.38;1.60;;;;;;;;;;5087454;28;20031;-77
2022/04/02 12:03:30;;;;;;;8.10;1.80;;;;;;;;;;5085843;28;20030;-76
2022/04/02 12:06:09;;;;;;;6.40;1.58;;;;;;;;;;5085140;28;20033;-75
2022/04/02 12:08:36;;;;;;;5.45;1.80;;;;;;;;;;5089106;28;20026;-75
2022/04/02 12:11:03;;;;;;;4.90;1.80;;;;;;;;;;5077361;28;20438;-76
2022/04/02 12:13:30;;;;;;;7.95;1.60;;;;;;;;;;5082071;28;20032;-76
2022/04/02 12:16:04;;;;;;;2.92;1.83;;;;;;;;;;5082161;28;20028;-75
2022/04/02 12:18:31;;;;;;;8.38;1.77;;;;;;;;;;5077372;28;20039;-75
2022/04/02 12:21:02;;;;;;;3.10;1.50;;;;;;;;;;5090140;28;20062;-76
2022/04/02 12:23:28;;;;;;;6.45;1.85;;;;;;;;;;5081205;28;20759;-74
2022/04/02 12:25:55;;;;;;;5.97;1.67;;;;;;;;;;5077200;28;20247;-76
2022/04/02 12:28:22;;;;;;;2.60;1.33;;;;;;;;;;5086933;28;20028;-76
2022/04/02 12:30:49;;;;;;;4.47;1.58;;;;;;;;;;5080847;28;20055;-74
2022/04/02 12:33:18;;;;;;;2.45;1.67;;;;;;;;;;5069442;28;20029;-72
2022/04/02 12:35:46;;;;;;;5.53;2.45;;;;;;;;;;5074223;28;20038;-72
2022/04/02 12:38:22;;;;;;;3.55;1.90;;;;;;;;;;5091678;28;20030;-73
2022/04/02 12:40:51;;;;;;;2.97;1.52;;;;;;;;;;5079085;28;20554;-72
2022/04/02 12:43:26;;;;;;;2.75;1.52;;;;;;;;;;5090683;28;20047;-73
2022/04/02 12:45:52;;;;;;;2.92;1.70;;;;;;;;;;5090412;28;20118;-74
2022/04/02 12:48:20;;;;;;;6.90;2.00;;;;;;;;;;5088191;28;20052;-73
2022/04/02 12:50:54;;;;;;;2.50;1.52;;;;;;;;;;5081803;28;20090;-74
2022/04/02 12:53:46;;;;;;;1.83;1.38;;;;;;;;;;5079453;28;20032;-74
2022/04/02 12:56:19;;;;;;;6.43;1.80;;;;;;;;;;5089016;28;20032;-74
2022/04/02 12:58:46;;;;;;;3.42;1.67;;;;;;;;;;5091543;28;20119;-73
2022/04/02 13:01:27;;;;;;;5.43;2.10;;;;;;;;;;5088020;28;20047;-73
2022/04/02 13:04:08;;;;;;;3.75;1.85;;;;;;;;;;5080510;28;20028;-73
2022/04/02 13:06:35;;;;;;;6.70;2.57;;;;;;;;;;5082539;28;20040;-74
2022/04/02 13:09:05;;;;;;;12.40;2.15;;;;;;;;;;5083949;28;20025;-73
2022/04/02 13:11:43;;;;;;;5.20;2.20;;;;;;;;;;5077647;28;20020;-73
2022/04/02 13:14:17;;;;;;;7.00;1.85;;;;;;;;;;5087243;28;20291;-73
2022/04/02 13:16:44;;;;;;;4.25;2.20;;;;;;;;;;5079615;28;20497;-75
2022/04/02 13:22:02;;;;;;;8.15;2.00;;;;;;;;;;5079782;28;20050;-77
2022/04/02 13:24:28;;;;;;;12.77;3.33;;;;;;;;;;5084211;28;20431;-75
2022/04/02 13:26:59;;;;;;;5.50;2.30;;;;;;;;;;5086682;28;20039;-76
2022/04/02 13:29:39;;;;;;;2.37;1.50;;;;;;;;;;5088184;28;20047;-74
2022/04/02 13:32:23;;;;;;;3.67;2.00;;;;;;;;;;5088471;28;20621;-72
2022/04/02 13:34:58;;;;;;;5.53;1.60;;;;;;;;;;5084409;28;20020;-75
2022/04/02 13:37:35;;;;;;;4.05;1.48;;;;;;;;;;5084986;28;20044;-74
2022/04/02 13:40:03;;;;;;;8.80;2.45;;;;;;;;;;5079111;28;20021;-73
2022/04/02 13:42:35;;;;;;;4.05;1.58;;;;;;;;;;5076744;28;20024;-74
2022/04/02 13:45:01;;;;;;;3.72;1.65;;;;;;;;;;5080438;28;20040;-74
2022/04/02 13:47:30;;;;;;;2.30;1.48;;;;;;;;;;5082418;28;20035;-72
2022/04/02 13:49:57;;;;;;;3.72;1.42;;;;;;;;;;5088902;28;20035;-74
2022/04/02 13:52:23;;;;;;;4.57;1.52;;;;;;;;;;5085037;28;20028;-75
2022/04/02 13:55:01;;;;;;;4.65;1.80;;;;;;;;;;5083436;28;20020;-73
2022/04/02 13:57:32;;;;;;;3.08;1.77;;;;;;;;;;5075245;28;20020;-73
2022/04/02 14:00:00;;;;;;;6.28;1.67;;;;;;;;;;5074016;28;20448;-73
2022/04/02 14:02:27;;;;;;;3.03;1.65;;;;;;;;;;5084855;28;20154;-73
2022/04/02 14:05:05;;;;;;;4.65;1.50;;;;;;;;;;5078836;28;20024;-72
2022/04/02 14:07:34;;;;;;;8.68;1.50;;;;;;;;;;5082506;28;20024;-74
2022/04/02 14:10:06;;;;;;;4.40;1.50;;;;;;;;;;5084261;28;20483;-75
2022/04/02 14:12:37;;;;;;;2.78;1.75;;;;;;;;;;5075414;28;20048;-74
2022/04/02 14:15:08;;;;;;;6.30;1.63;;;;;;;;;;5080196;28;20024;-73
2022/04/02 14:17:39;;;;;;;2.28;1.42;;;;;;;;;;5079493;28;20024;-72
2022/04/02 14:20:09;;;;;;;7.50;1.50;;;;;;;;;;5065470;28;20130;-71
2022/04/02 14:22:46;;;;;;;6.15;1.45;;;;;;;;;;5071350;28;20031;-71
2022/04/02 14:25:30;;;;;;;2.83;1.40;;;;;;;;;;5070710;28;20128;-72
2022/04/02 14:28:17;;;;;;;4.43;1.48;;;;;;;;;;5082114;28;20077;-75
2022/04/02 14:30:58;;;;;;;2.58;1.33;;;;;;;;;;5085927;28;20062;-70
2022/04/02 14:33:42;;;;;;;8.05;1.40;;;;;;;;;;5087511;28;20048;-75
2022/04/02 14:36:27;;;;;;;5.00;1.70;;;;;;;;;;5075206;28;20629;-74
2022/04/02 14:39:07;;;;;;;3.42;1.58;;;;;;;;;;5092203;28;20379;-74
2022/04/02 14:41:52;;;;;;;2.35;1.48;;;;;;;;;;5074790;28;20501;-74
2022/04/02 14:44:30;;;;;;;4.53;1.52;;;;;;;;;;5085348;28;20083;-75
2022/04/02 14:47:25;;;;;;;6.10;2.00;;;;;;;;;;5079106;28;20110;-75
2022/04/02 14:50:10;;;;;;;5.05;1.52;;;;;;;;;;5087798;28;20028;-75
2022/04/02 14:52:55;;;;;;;7.18;1.52;;;;;;;;;;5082048;28;20053;-74
2022/04/02 14:55:50;;;;;;;3.78;1.40;;;;;;;;;;5076320;28;20024;-75
2022/04/02 14:58:34;;;;;;;3.70;1.75;;;;;;;;;;5089108;28;20024;-73
2022/04/02 15:01:06;;;;;;;4.43;1.50;;;;;;;;;;5076000;28;20391;-73
2022/04/02 15:03:43;;;;;;;3.80;1.30;;;;;;;;;;5081763;28;20115;-74
2022/04/02 15:06:10;;;;;;;5.05;1.40;;;;;;;;;;5080026;28;20039;-71